Pagrindinis puslapis
METAR-TAF:

METAR-TAF

Oro uostai :

Trevizas, Italija

platuma: 45-41N, ilguma: 012-06E, Aukštis: 45 m

Dabartinis oras

Ataskaita buvo paskelbta 1 valandą ir 8 minutes, ne 21:55 UTC
Temperatūra 5°C
Drėgmė 93%
Slėgis 1016 hPa
Matomumas: 0150 m
Apsiniaukę ne aukštis 100 ft
rūkas

METAR: LIPS 272155Z /////KT 0150 FG OVC001 05/04 Q1016 RMK OVC VIS MIN 0150 WIND THR26 33001KT WIND THR08 36002KT RED

Laikas: 00:03 (23:03 UTC)

Prognozė

Ataskaita buvo paskelbta 3 valandos ir 3 minutes, ne 20:00 UTC
Prognozė galioja nuo 27 metu 21 UTC su 28 metu 06 UTC
Vėjas 3 kt nuo kintamojo kryptimis
Matomumas: 0800 m
Išsisklaidę debesys ne aukštis 300 ft
Su prošvaistėmis ne aukštis 3000 ft
rūkas
Laikinai
nuo 27 metu 22 UTC su 28 metu 06 UTC
Matomumas: 1200 m
Apsiniaukę ne aukštis 600 ft
dulksna, rūkana

TAF: LIPS 272000Z 2721/2806 VRB03KT 0800 FG SCT003 BKN030 TEMPO 2722/2806 1200 DZ BR OVC006

Orai ataskaitas ir orų prognozės (METAR, TAF).

turimą stotys yra geltonos ir raudonos taškus žemėlapyje.

Perkelti pele per norėdami pamatyti stoties vardą.

Tada spustelėkite, norėdami matyti oro stebėjimo ir prognozės.

Norėdami pakeisti žemėlapį: spustelėkite ant žalios mygtukų su juodo kryžiaus žemyn,; žalią mygtuką su brūkšneliu, jei norite nutolinti; arba žalių rodyklių gretimoms žemėlapius.


METAR-TAF: